createdAt,value
2023-04-02T00:00:36.000Z,430.9801025390625
2023-04-02T00:01:39.000Z,432.239013671875
2023-04-02T00:02:41.000Z,433.0591125488281
2023-04-02T00:03:43.000Z,432.7028503417969
2023-04-02T00:04:46.000Z,433.4628601074219
2023-04-02T00:05:48.000Z,433.5729064941406
2023-04-02T00:06:51.000Z,434.10980224609375
2023-04-02T00:07:53.000Z,434.4202575683594
2023-04-02T00:08:55.000Z,432.6485900878906
2023-04-02T00:09:58.000Z,433.2179260253906
2023-04-02T00:11:00.000Z,432.2394104003906
2023-04-02T00:12:03.000Z,430.5433349609375
2023-04-02T00:13:05.000Z,434.6865234375
2023-04-02T00:14:07.000Z,435.92181396484375
2023-04-02T00:15:10.000Z,434.926513671875
2023-04-02T00:16:12.000Z,434.9825744628906
2023-04-02T00:17:14.000Z,432.3482666015625
2023-04-02T00:18:17.000Z,431.736572265625
2023-04-02T00:19:19.000Z,433.1817626953125
2023-04-02T00:20:21.000Z,433.8063659667969
2023-04-02T00:21:24.000Z,431.07977294921875
2023-04-02T00:22:27.000Z,431.736083984375
2023-04-02T00:23:29.000Z,432.1362609863281
2023-04-02T00:24:31.000Z,430.8670349121094
2023-04-02T00:25:33.000Z,431.1254577636719
2023-04-02T00:26:36.000Z,432.8511962890625
2023-04-02T00:27:38.000Z,431.63916015625
2023-04-02T00:28:41.000Z,432.0593566894531
2023-04-02T00:29:43.000Z,431.917724609375
2023-04-02T00:30:45.000Z,430.07647705078125
2023-04-02T00:31:48.000Z,429.8836364746094
2023-04-02T00:32:50.000Z,428.6823425292969
2023-04-02T00:33:52.000Z,427.4400329589844
2023-04-02T00:34:55.000Z,428.0590515136719
2023-04-02T00:36:02.000Z,429.01446533203125
2023-04-02T00:37:04.000Z,426.00872802734375
2023-04-02T00:38:07.000Z,425.12286376953125
2023-04-02T00:39:09.000Z,426.6263122558594
2023-04-02T00:40:11.000Z,429.6485900878906
2023-04-02T00:41:14.000Z,427.03485107421875
2023-04-02T00:42:16.000Z,429.40863037109375
2023-04-02T00:43:18.000Z,428.5183410644531
2023-04-02T00:44:20.000Z,426.9640197753906
2023-04-02T00:45:23.000Z,428.21502685546875
2023-04-02T00:46:25.000Z,431.4004211425781
2023-04-02T00:47:27.000Z,433.4059143066406
2023-04-02T00:48:30.000Z,431.5916442871094
2023-04-02T00:49:32.000Z,431.12567138671875
2023-04-02T00:50:40.000Z,429.7398986816406
2023-04-02T00:51:42.000Z,429.18115234375
2023-04-02T00:52:44.000Z,428.87774658203125
2023-04-02T00:53:47.000Z,430.66119384765625
2023-04-02T00:54:49.000Z,430.1363220214844
2023-04-02T00:55:51.000Z,430.07073974609375
2023-04-02T00:56:54.000Z,430.919921875
2023-04-02T00:57:56.000Z,431.6517333984375
2023-04-02T00:58:59.000Z,431.2471923828125
2023-04-02T01:00:01.000Z,431.23931884765625
2023-04-02T01:01:03.000Z,431.9867858886719
2023-04-02T01:02:06.000Z,431.5546875
2023-04-02T01:03:08.000Z,432.195556640625
2023-04-02T01:04:10.000Z,431.7024841308594
2023-04-02T01:05:13.000Z,434.2530517578125
2023-04-02T01:06:15.000Z,434.6578063964844
2023-04-02T01:07:17.000Z,435.83819580078125
2023-04-02T01:08:20.000Z,436.82073974609375
2023-04-02T01:09:22.000Z,435.13909912109375
2023-04-02T01:10:24.000Z,438.276123046875
2023-04-02T01:11:27.000Z,438.1573486328125
2023-04-02T01:12:29.000Z,440.1068115234375
2023-04-02T01:13:31.000Z,440.4142761230469
2023-04-02T01:14:33.000Z,440.54705810546875
2023-04-02T01:15:36.000Z,439.55181884765625
2023-04-02T01:16:38.000Z,436.61395263671875
2023-04-02T01:17:40.000Z,436.9886474609375
2023-04-02T01:18:43.000Z,436.92376708984375
2023-04-02T01:19:45.000Z,435.3429870605469
2023-04-02T01:20:47.000Z,435.9752502441406
2023-04-02T01:21:50.000Z,438.48199462890625
2023-04-02T01:22:52.000Z,438.9185485839844
2023-04-02T01:23:54.000Z,441.76904296875
2023-04-02T01:24:57.000Z,439.91619873046875
2023-04-02T01:25:59.000Z,437.454345703125
2023-04-02T01:27:01.000Z,436.4295959472656
2023-04-02T01:28:03.000Z,437.7550048828125
2023-04-02T01:29:06.000Z,438.75732421875
2023-04-02T01:30:08.000Z,436.57318115234375
2023-04-02T01:31:10.000Z,435.5233459472656
2023-04-02T01:32:12.000Z,434.6939697265625
2023-04-02T01:33:15.000Z,435.4507751464844
2023-04-02T01:34:17.000Z,437.0682678222656
2023-04-02T01:35:20.000Z,436.3897399902344
2023-04-02T01:36:22.000Z,437.83587646484375
2023-04-02T01:37:24.000Z,438.3643493652344
2023-04-02T01:38:27.000Z,439.29071044921875
2023-04-02T01:39:29.000Z,438.0732727050781
2023-04-02T01:40:31.000Z,437.195068359375
2023-04-02T01:41:34.000Z,439.9193420410156
2023-04-02T01:42:36.000Z,441.2738952636719
2023-04-02T01:43:38.000Z,438.9581604003906
2023-04-02T01:44:41.000Z,436.5814514160156
2023-04-02T01:45:48.000Z,436.8092346191406
2023-04-02T01:46:51.000Z,433.1251525878906
2023-04-02T01:47:53.000Z,432.08935546875
2023-04-02T01:48:56.000Z,430.8789367675781
2023-04-02T01:49:58.000Z,428.9135437011719
2023-04-02T01:51:10.000Z,427.1955261230469
2023-04-02T01:52:12.000Z,428.3868103027344
2023-04-02T01:53:15.000Z,426.7276916503906
2023-04-02T01:54:17.000Z,426.64898681640625
2023-04-02T01:55:19.000Z,428.48126220703125
2023-04-02T01:56:22.000Z,430.4198913574219
2023-04-02T01:57:24.000Z,431.2969055175781
2023-04-02T01:58:26.000Z,434.1729736328125
2023-04-02T01:59:34.000Z,434.8790588378906
2023-04-02T02:00:36.000Z,434.8412170410156
2023-04-02T02:01:39.000Z,433.1896667480469
2023-04-02T02:02:41.000Z,434.0719299316406
2023-04-02T02:03:43.000Z,432.4267578125
2023-04-02T02:04:46.000Z,436.1447448730469
2023-04-02T02:05:48.000Z,434.7590637207031
2023-04-02T02:06:50.000Z,431.89178466796875
2023-04-02T02:07:53.000Z,429.9618835449219
2023-04-02T02:08:55.000Z,429.3070068359375
2023-04-02T02:09:57.000Z,430.4641418457031
2023-04-02T02:11:00.000Z,434.24114990234375
2023-04-02T02:12:07.000Z,433.4126892089844
2023-04-02T02:13:09.000Z,432.9122009277344
2023-04-02T02:14:12.000Z,432.6265869140625
2023-04-02T02:15:14.000Z,431.8067932128906
2023-04-02T02:16:18.000Z,432.417236328125
2023-04-02T02:17:20.000Z,432.8389587402344
2023-04-02T02:18:22.000Z,432.8464050292969
2023-04-02T02:19:24.000Z,433.57855224609375
2023-04-02T02:20:27.000Z,435.7481384277344
2023-04-02T02:21:29.000Z,434.4959716796875
2023-04-02T02:22:31.000Z,435.18292236328125
2023-04-02T02:23:34.000Z,434.8398742675781
2023-04-02T02:24:36.000Z,432.6886901855469
2023-04-02T02:25:38.000Z,433.7509460449219
2023-04-02T02:26:41.000Z,438.5004577636719
2023-04-02T02:27:43.000Z,438.7449035644531
2023-04-02T02:28:45.000Z,439.17120361328125
2023-04-02T02:29:48.000Z,438.5397033691406
2023-04-02T02:30:50.000Z,438.4432373046875
2023-04-02T02:31:52.000Z,438.4862365722656
2023-04-02T02:32:55.000Z,440.00286865234375
2023-04-02T02:33:57.000Z,438.7186279296875
2023-04-02T02:34:59.000Z,434.0967712402344
2023-04-02T02:36:01.000Z,433.4580383300781
2023-04-02T02:37:04.000Z,432.4438171386719
2023-04-02T02:38:06.000Z,432.0091247558594
2023-04-02T02:39:08.000Z,431.51202392578125
2023-04-02T02:40:11.000Z,433.71807861328125
2023-04-02T02:41:13.000Z,430.1299743652344
2023-04-02T02:42:15.000Z,430.6578063964844
2023-04-02T02:43:18.000Z,431.6270751953125
2023-04-02T02:44:20.000Z,432.83929443359375
2023-04-02T02:45:22.000Z,431.366455078125
2023-04-02T02:46:24.000Z,431.4563293457031
2023-04-02T02:47:27.000Z,432.3082275390625
2023-04-02T02:48:29.000Z,431.8646240234375
2023-04-02T02:49:31.000Z,430.4766540527344
2023-04-02T02:50:34.000Z,430.00396728515625
2023-04-02T02:51:36.000Z,431.02496337890625
2023-04-02T02:52:38.000Z,430.3111877441406
2023-04-02T02:53:41.000Z,430.2356262207031
2023-04-02T02:54:43.000Z,429.5636901855469
2023-04-02T02:55:45.000Z,431.0776062011719
2023-04-02T02:56:48.000Z,429.28515625
2023-04-02T02:57:50.000Z,428.86553955078125
2023-04-02T02:58:52.000Z,427.1990966796875
2023-04-02T02:59:55.000Z,428.56011962890625
2023-04-02T03:00:57.000Z,428.111572265625
2023-04-02T03:01:59.000Z,427.91351318359375
2023-04-02T03:03:02.000Z,429.4969177246094
2023-04-02T03:04:04.000Z,428.57916259765625
2023-04-02T03:05:07.000Z,428.8074035644531
2023-04-02T03:06:09.000Z,427.7325744628906
2023-04-02T03:07:11.000Z,429.87786865234375
2023-04-02T03:08:13.000Z,429.3048400878906
2023-04-02T03:09:16.000Z,428.71771240234375
2023-04-02T03:10:18.000Z,427.9349060058594
2023-04-02T03:11:20.000Z,426.67333984375
2023-04-02T03:12:22.000Z,427.21197509765625
2023-04-02T03:13:25.000Z,429.2686462402344
2023-04-02T03:14:27.000Z,429.6464538574219
2023-04-02T03:15:29.000Z,428.27545166015625
2023-04-02T03:16:32.000Z,426.83526611328125
2023-04-02T03:17:34.000Z,426.7907409667969
2023-04-02T03:18:36.000Z,425.83367919921875
2023-04-02T03:19:39.000Z,425.3041076660156
2023-04-02T03:20:41.000Z,425.379150390625
2023-04-02T03:21:43.000Z,425.8509521484375
2023-04-02T03:22:45.000Z,425.8412170410156
2023-04-02T03:23:48.000Z,426.052001953125
2023-04-02T03:24:50.000Z,429.1693420410156
2023-04-02T03:25:52.000Z,428.8948059082031
2023-04-02T03:26:55.000Z,427.7794494628906
2023-04-02T03:27:57.000Z,427.07342529296875
2023-04-02T03:28:59.000Z,427.11041259765625
2023-04-02T03:30:02.000Z,428.1404113769531
2023-04-02T03:31:04.000Z,429.0771789550781
2023-04-02T03:32:06.000Z,428.9748840332031
2023-04-02T03:33:08.000Z,429.6971130371094
2023-04-02T03:34:11.000Z,431.5263671875
2023-04-02T03:35:13.000Z,429.6161804199219
2023-04-02T03:36:15.000Z,429.17791748046875
2023-04-02T03:37:18.000Z,427.7276916503906
2023-04-02T03:38:20.000Z,426.6979064941406
2023-04-02T03:39:22.000Z,428.40704345703125
2023-04-02T03:40:24.000Z,430.814697265625
2023-04-02T03:41:27.000Z,429.9095153808594
2023-04-02T03:42:29.000Z,427.2577209472656
2023-04-02T03:43:31.000Z,426.78375244140625
2023-04-02T03:44:34.000Z,425.7550048828125
2023-04-02T03:45:36.000Z,426.7659912109375
2023-04-02T03:46:38.000Z,425.285400390625
2023-04-02T03:47:41.000Z,423.7685546875
2023-04-02T03:48:43.000Z,422.54351806640625
2023-04-02T03:49:45.000Z,423.7005615234375
2023-04-02T03:50:47.000Z,427.92919921875
2023-04-02T03:51:50.000Z,428.8772888183594
2023-04-02T03:52:52.000Z,427.0860290527344
2023-04-02T03:53:54.000Z,427.5276184082031
2023-04-02T03:54:57.000Z,427.6770324707031
2023-04-02T03:55:59.000Z,430.176025390625
2023-04-02T03:57:01.000Z,430.8780517578125
2023-04-02T03:58:04.000Z,430.4266357421875
2023-04-02T03:59:06.000Z,430.9048156738281
2023-04-02T04:00:08.000Z,431.7654113769531
2023-04-02T04:01:10.000Z,432.07861328125
2023-04-02T04:02:13.000Z,430.05267333984375
2023-04-02T04:03:15.000Z,428.83282470703125
2023-04-02T04:04:17.000Z,427.58050537109375
2023-04-02T04:05:20.000Z,428.57977294921875
2023-04-02T04:06:22.000Z,429.84564208984375
2023-04-02T04:07:25.000Z,429.1414489746094
2023-04-02T04:08:28.000Z,428.4049987792969
2023-04-02T04:09:30.000Z,425.10992431640625
2023-04-02T04:10:32.000Z,424.3113708496094
2023-04-02T04:11:34.000Z,427.1832580566406
2023-04-02T04:12:37.000Z,427.7419738769531
2023-04-02T04:13:39.000Z,427.1486511230469
2023-04-02T04:14:41.000Z,428.9984130859375
2023-04-02T04:15:44.000Z,429.20062255859375
2023-04-02T04:16:46.000Z,430.1831359863281
2023-04-02T04:17:48.000Z,431.77557373046875
2023-04-02T04:18:50.000Z,433.9073181152344
2023-04-02T04:19:53.000Z,433.9090576171875
2023-04-02T04:20:55.000Z,434.7981872558594
2023-04-02T04:21:57.000Z,433.42431640625
2023-04-02T04:23:00.000Z,432.7804870605469
2023-04-02T04:24:02.000Z,433.6929931640625
2023-04-02T04:25:04.000Z,435.7913513183594
2023-04-02T04:26:06.000Z,433.0008544921875
2023-04-02T04:27:09.000Z,432.3368835449219
2023-04-02T04:28:11.000Z,431.67022705078125
2023-04-02T04:29:14.000Z,434.7333068847656
2023-04-02T04:30:16.000Z,434.5680847167969
2023-04-02T04:31:18.000Z,433.9443359375
2023-04-02T04:32:21.000Z,431.4535827636719
2023-04-02T04:33:23.000Z,429.93212890625
2023-04-02T04:34:26.000Z,429.3399963378906
2023-04-02T04:35:29.000Z,428.8365173339844
2023-04-02T04:36:31.000Z,429.1186218261719
2023-04-02T04:37:34.000Z,429.80352783203125
2023-04-02T04:38:36.000Z,431.91876220703125
2023-04-02T04:39:38.000Z,435.0765075683594
2023-04-02T04:40:41.000Z,434.04193115234375
2023-04-02T04:41:43.000Z,431.951904296875
2023-04-02T04:42:45.000Z,430.2732849121094
2023-04-02T04:43:48.000Z,429.19366455078125
2023-04-02T04:44:50.000Z,430.8150329589844
2023-04-02T04:45:52.000Z,431.83074951171875
2023-04-02T04:46:55.000Z,430.81842041015625
2023-04-02T04:47:57.000Z,429.625732421875
2023-04-02T04:49:00.000Z,430.81842041015625
2023-04-02T04:50:02.000Z,431.32568359375
2023-04-02T04:51:04.000Z,429.9378662109375
2023-04-02T04:52:06.000Z,430.5965576171875
2023-04-02T04:53:09.000Z,430.97991943359375
2023-04-02T04:54:11.000Z,433.0668029785156
2023-04-02T04:55:13.000Z,431.4971008300781
2023-04-02T04:56:16.000Z,432.9299011230469
2023-04-02T04:57:18.000Z,433.7761535644531
2023-04-02T04:58:20.000Z,435.44976806640625
2023-04-02T04:59:22.000Z,434.9707946777344
2023-04-02T05:00:25.000Z,432.56011962890625
2023-04-02T05:01:27.000Z,432.95843505859375
2023-04-02T05:02:29.000Z,434.87347412109375
2023-04-02T05:03:32.000Z,437.7568664550781
2023-04-02T05:04:34.000Z,434.1568908691406
2023-04-02T05:05:36.000Z,436.4749755859375
2023-04-02T05:06:39.000Z,436.6624450683594
2023-04-02T05:07:41.000Z,435.9517517089844
2023-04-02T05:08:43.000Z,433.212158203125
2023-04-02T05:09:46.000Z,433.2405090332031
2023-04-02T05:10:48.000Z,432.078857421875
2023-04-02T05:11:50.000Z,433.4920654296875
2023-04-02T05:12:52.000Z,435.6617736816406
2023-04-02T05:13:55.000Z,433.4883117675781
2023-04-02T05:14:57.000Z,431.45477294921875
2023-04-02T05:15:59.000Z,430.8978576660156
2023-04-02T05:17:02.000Z,433.3373718261719
2023-04-02T05:18:04.000Z,432.1470031738281
2023-04-02T05:19:06.000Z,430.46466064453125
2023-04-02T05:20:08.000Z,430.35638427734375
2023-04-02T05:21:11.000Z,430.38104248046875
2023-04-02T05:22:13.000Z,431.3801574707031
2023-04-02T05:23:15.000Z,432.84332275390625
2023-04-02T05:24:18.000Z,433.31317138671875
2023-04-02T05:25:20.000Z,436.02325439453125
2023-04-02T05:26:22.000Z,435.156005859375
2023-04-02T05:27:25.000Z,434.654541015625
2023-04-02T05:28:27.000Z,434.264404296875
2023-04-02T05:29:29.000Z,431.46478271484375
2023-04-02T05:30:32.000Z,428.34869384765625
2023-04-02T05:31:34.000Z,430.43603515625
2023-04-02T05:32:36.000Z,428.7629089355469
2023-04-02T05:33:38.000Z,428.1379699707031
2023-04-02T05:34:41.000Z,428.666748046875
2023-04-02T05:35:43.000Z,428.1399841308594
2023-04-02T05:36:45.000Z,428.8456115722656
2023-04-02T05:37:48.000Z,431.0321044921875
2023-04-02T05:38:50.000Z,432.15179443359375
2023-04-02T05:39:52.000Z,429.9523620605469
2023-04-02T05:40:54.000Z,429.0313720703125
2023-04-02T05:41:57.000Z,426.779541015625
2023-04-02T05:42:59.000Z,425.7933654785156
2023-04-02T05:44:01.000Z,427.11041259765625
2023-04-02T05:45:04.000Z,428.3089294433594
2023-04-02T05:46:06.000Z,427.7225646972656
2023-04-02T05:47:08.000Z,428.717529296875
2023-04-02T05:48:10.000Z,428.74884033203125
2023-04-02T05:49:13.000Z,427.5752258300781
2023-04-02T05:50:15.000Z,427.281982421875
2023-04-02T05:51:17.000Z,427.7744445800781
2023-04-02T05:52:20.000Z,429.5207824707031
2023-04-02T05:53:22.000Z,429.1492919921875
2023-04-02T05:54:24.000Z,428.8635559082031
2023-04-02T05:55:26.000Z,429.48046875
2023-04-02T05:56:29.000Z,428.9830017089844
2023-04-02T05:57:31.000Z,429.8163757324219
2023-04-02T05:58:33.000Z,429.0251770019531
2023-04-02T05:59:36.000Z,428.7694091796875
2023-04-02T06:00:38.000Z,429.6549072265625
2023-04-02T06:01:40.000Z,429.8540954589844
2023-04-02T06:02:43.000Z,430.9561767578125
2023-04-02T06:03:45.000Z,431.139892578125
2023-04-02T06:04:47.000Z,431.2716369628906
2023-04-02T06:05:50.000Z,434.5708312988281
2023-04-02T06:06:52.000Z,435.84222412109375
2023-04-02T06:07:54.000Z,434.81964111328125
2023-04-02T06:08:56.000Z,433.40380859375
2023-04-02T06:09:59.000Z,432.70330810546875
2023-04-02T06:11:01.000Z,434.68280029296875
2023-04-02T06:12:03.000Z,435.2322082519531
2023-04-02T06:13:06.000Z,430.9637451171875
2023-04-02T06:14:08.000Z,432.72015380859375
2023-04-02T06:15:10.000Z,434.5057067871094
2023-04-02T06:16:13.000Z,435.31732177734375
2023-04-02T06:17:15.000Z,434.6500244140625
2023-04-02T06:18:17.000Z,434.5311279296875
2023-04-02T06:19:19.000Z,436.01690673828125
2023-04-02T06:20:22.000Z,437.7042541503906
2023-04-02T06:21:24.000Z,435.4334716796875
2023-04-02T06:22:26.000Z,435.5301208496094
2023-04-02T06:23:29.000Z,434.2798156738281
2023-04-02T06:24:31.000Z,434.621337890625
2023-04-02T06:25:33.000Z,435.2144775390625
2023-04-02T06:26:36.000Z,435.1410217285156
2023-04-02T06:27:38.000Z,434.1824035644531
2023-04-02T06:28:40.000Z,430.2886047363281
2023-04-02T06:29:43.000Z,429.6515808105469
2023-04-02T06:30:45.000Z,431.4713134765625
2023-04-02T06:31:47.000Z,431.31561279296875
2023-04-02T06:32:50.000Z,431.7239685058594
2023-04-02T06:33:52.000Z,430.11578369140625
2023-04-02T06:34:54.000Z,428.38677978515625
2023-04-02T06:35:56.000Z,428.3344421386719
2023-04-02T06:36:59.000Z,427.3337097167969
2023-04-02T06:38:01.000Z,428.4266662597656
2023-04-02T06:39:03.000Z,429.7313537597656
2023-04-02T06:40:06.000Z,430.1740417480469
2023-04-02T06:41:08.000Z,431.1479187011719
2023-04-02T06:42:10.000Z,432.0058288574219
2023-04-02T06:43:12.000Z,434.2109375
2023-04-02T06:44:15.000Z,433.6480712890625
2023-04-02T06:45:17.000Z,432.7721252441406
2023-04-02T06:46:19.000Z,429.4773864746094
2023-04-02T06:47:22.000Z,432.791015625
2023-04-02T06:48:24.000Z,433.46630859375
2023-04-02T06:49:26.000Z,432.2138366699219
2023-04-02T06:50:29.000Z,432.6398620605469
2023-04-02T06:51:31.000Z,432.956298828125
2023-04-02T06:52:33.000Z,433.89984130859375
2023-04-02T06:53:35.000Z,433.8890686035156
2023-04-02T06:54:38.000Z,434.135498046875
2023-04-02T06:55:40.000Z,433.75860595703125
2023-04-02T06:56:42.000Z,431.4873352050781
2023-04-02T06:57:45.000Z,434.22430419921875
2023-04-02T06:58:47.000Z,435.8056640625
2023-04-02T06:59:49.000Z,435.2056579589844
2023-04-02T07:00:51.000Z,435.3775939941406
2023-04-02T07:01:54.000Z,436.3091125488281
2023-04-02T07:02:56.000Z,435.54974365234375
2023-04-02T07:03:58.000Z,436.95489501953125
2023-04-02T07:05:00.000Z,437.44940185546875
2023-04-02T07:06:03.000Z,437.83184814453125
2023-04-02T07:07:05.000Z,436.2591552734375
2023-04-02T07:08:07.000Z,434.5914001464844
2023-04-02T07:09:09.000Z,433.7292175292969
2023-04-02T07:10:12.000Z,432.9366149902344
2023-04-02T07:11:14.000Z,432.8532409667969
2023-04-02T07:12:16.000Z,433.28594970703125
2023-04-02T07:13:18.000Z,433.0323181152344
2023-04-02T07:14:21.000Z,432.759033203125
2023-04-02T07:15:23.000Z,428.31805419921875
2023-04-02T07:16:26.000Z,426.9176940917969
2023-04-02T07:17:28.000Z,429.2826843261719
2023-04-02T07:18:30.000Z,434.1951904296875
2023-04-02T07:19:32.000Z,434.96160888671875
2023-04-02T07:20:35.000Z,433.6062927246094
2023-04-02T07:21:37.000Z,431.4276428222656
2023-04-02T07:22:39.000Z,429.8176574707031
2023-04-02T07:23:41.000Z,429.3234558105469
2023-04-02T07:24:44.000Z,427.43194580078125
2023-04-02T07:25:46.000Z,429.17626953125
2023-04-02T07:26:49.000Z,428.5981750488281
2023-04-02T07:27:57.000Z,429.8197021484375
2023-04-02T07:28:59.000Z,429.1111145019531
2023-04-02T07:30:01.000Z,428.9748840332031
2023-04-02T07:31:03.000Z,429.6054382324219
2023-04-02T07:32:05.000Z,430.5686340332031
2023-04-02T07:33:08.000Z,429.3298034667969
2023-04-02T07:34:10.000Z,431.0164794921875
2023-04-02T07:35:12.000Z,431.71905517578125
2023-04-02T07:36:15.000Z,432.71746826171875
2023-04-02T07:37:17.000Z,432.505126953125
2023-04-02T07:38:19.000Z,432.6850280761719
2023-04-02T07:39:21.000Z,430.5453796386719
2023-04-02T07:40:24.000Z,431.6336364746094
2023-04-02T07:41:26.000Z,430.6139221191406
2023-04-02T07:42:28.000Z,429.59600830078125
2023-04-02T07:43:30.000Z,428.9803771972656
2023-04-02T07:44:33.000Z,427.5298767089844
2023-04-02T07:45:35.000Z,426.7186584472656
2023-04-02T07:46:37.000Z,424.8456726074219
2023-04-02T07:47:39.000Z,422.4096374511719
2023-04-02T07:48:42.000Z,423.93609619140625
2023-04-02T07:49:44.000Z,424.6979675292969
2023-04-02T07:50:46.000Z,423.0055236816406
2023-04-02T07:51:49.000Z,425.2633972167969
2023-04-02T07:52:51.000Z,427.1691589355469
2023-04-02T07:53:53.000Z,427.0670471191406
2023-04-02T07:54:55.000Z,427.4985046386719
2023-04-02T07:55:58.000Z,430.15167236328125
2023-04-02T07:57:00.000Z,429.0589294433594
2023-04-02T07:58:02.000Z,424.9993591308594
2023-04-02T07:59:05.000Z,424.8686828613281
2023-04-02T08:00:07.000Z,424.62847900390625
2023-04-02T08:01:09.000Z,425.3697509765625
2023-04-02T08:02:11.000Z,425.15093994140625
2023-04-02T08:03:14.000Z,428.420166015625
2023-04-02T08:04:16.000Z,429.7425231933594
2023-04-02T08:05:18.000Z,429.9961242675781
2023-04-02T08:06:21.000Z,430.7678527832031
2023-04-02T08:07:23.000Z,432.0346984863281
2023-04-02T08:08:25.000Z,431.0723876953125
2023-04-02T08:09:27.000Z,433.146484375
2023-04-02T08:10:30.000Z,433.0442199707031
2023-04-02T08:11:32.000Z,429.9668273925781
2023-04-02T08:12:34.000Z,431.4998474121094
2023-04-02T08:13:36.000Z,432.4290771484375
2023-04-02T08:14:39.000Z,432.5552978515625
2023-04-02T08:15:41.000Z,434.25933837890625
2023-04-02T08:16:43.000Z,435.41314697265625
2023-04-02T08:17:46.000Z,433.2582092285156
2023-04-02T08:18:48.000Z,432.2030334472656
2023-04-02T08:19:50.000Z,431.70172119140625
2023-04-02T08:20:52.000Z,430.2064514160156
2023-04-02T08:21:55.000Z,431.0890197753906
2023-04-02T08:22:57.000Z,428.06072998046875
2023-04-02T08:23:59.000Z,429.7139892578125
2023-04-02T08:25:02.000Z,431.33709716796875
2023-04-02T08:26:04.000Z,431.8270263671875
2023-04-02T08:27:06.000Z,431.59912109375
2023-04-02T08:28:08.000Z,431.6759033203125
2023-04-02T08:29:11.000Z,431.59783935546875
2023-04-02T08:30:13.000Z,431.5975036621094
2023-04-02T08:31:15.000Z,433.41229248046875
2023-04-02T08:32:17.000Z,433.31573486328125
2023-04-02T08:33:19.000Z,432.342529296875
2023-04-02T08:34:22.000Z,431.33685302734375
2023-04-02T08:35:24.000Z,427.4764404296875
2023-04-02T08:36:26.000Z,427.5099182128906
2023-04-02T08:37:29.000Z,427.2347717285156
2023-04-02T08:38:31.000Z,426.6007995605469
2023-04-02T08:39:33.000Z,426.654541015625
2023-04-02T08:40:35.000Z,427.01190185546875
2023-04-02T08:41:37.000Z,427.81402587890625
2023-04-02T08:42:40.000Z,429.725341796875
2023-04-02T08:43:42.000Z,430.7357177734375
2023-04-02T08:44:44.000Z,433.1241149902344
2023-04-02T08:45:46.000Z,435.3809509277344
2023-04-02T08:46:49.000Z,438.1227111816406
2023-04-02T08:47:51.000Z,440.2549743652344
2023-04-02T08:48:53.000Z,438.78216552734375
2023-04-02T08:49:56.000Z,438.9850769042969
2023-04-02T08:50:58.000Z,437.8248291015625
2023-04-02T08:52:00.000Z,437.5711975097656
2023-04-02T08:53:02.000Z,436.67462158203125
2023-04-02T08:54:05.000Z,436.5691833496094
2023-04-02T08:55:07.000Z,434.2508239746094
2023-04-02T08:56:09.000Z,432.8610534667969
2023-04-02T08:57:11.000Z,432.99066162109375
2023-04-02T08:58:14.000Z,431.43267822265625
2023-04-02T08:59:16.000Z,430.7008056640625
2023-04-02T09:00:18.000Z,431.1792297363281
2023-04-02T09:01:20.000Z,433.3355712890625
2023-04-02T09:02:23.000Z,434.15167236328125
2023-04-02T09:03:25.000Z,434.6322326660156
2023-04-02T09:04:27.000Z,434.63214111328125
2023-04-02T09:05:29.000Z,435.10009765625
2023-04-02T09:06:32.000Z,432.8447570800781
2023-04-02T09:07:34.000Z,433.20281982421875
2023-04-02T09:08:36.000Z,433.450927734375
2023-04-02T09:09:38.000Z,433.9377746582031
2023-04-02T09:10:41.000Z,430.8965759277344
2023-04-02T09:11:43.000Z,430.356689453125
2023-04-02T09:12:45.000Z,431.6207275390625
2023-04-02T09:13:47.000Z,433.03057861328125
2023-04-02T09:14:50.000Z,432.538330078125
2023-04-02T09:15:52.000Z,435.4905090332031
2023-04-02T09:16:54.000Z,435.349609375
2023-04-02T09:17:56.000Z,435.58392333984375
2023-04-02T09:18:59.000Z,433.85980224609375
2023-04-02T09:20:01.000Z,433.1374206542969
2023-04-02T09:21:03.000Z,432.1806640625
2023-04-02T09:22:05.000Z,431.4714050292969
2023-04-02T09:23:08.000Z,433.74005126953125
2023-04-02T09:24:10.000Z,434.0569152832031
2023-04-02T09:25:12.000Z,435.7459716796875
2023-04-02T09:26:14.000Z,433.71575927734375
2023-04-02T09:27:17.000Z,433.3662414550781
2023-04-02T09:28:19.000Z,432.62384033203125
2023-04-02T09:29:21.000Z,434.1338195800781
2023-04-02T09:30:23.000Z,433.6151428222656
2023-04-02T09:31:26.000Z,435.2273864746094
2023-04-02T09:32:28.000Z,435.2969665527344
2023-04-02T09:33:30.000Z,436.2419738769531
2023-04-02T09:34:33.000Z,435.4286804199219
2023-04-02T09:35:35.000Z,436.4110412597656
2023-04-02T09:36:37.000Z,436.0074462890625
2023-04-02T09:37:39.000Z,434.8398132324219
2023-04-02T09:38:42.000Z,433.174072265625